createdAt,value
2024-02-28T00:01:34.176Z,54.85
2024-02-28T00:04:00.682Z,55.07
2024-02-28T00:06:27.194Z,55.05
2024-02-28T00:08:53.660Z,55.44
2024-02-28T00:11:20.104Z,56.01
2024-02-28T00:13:46.575Z,54.82
2024-02-28T00:16:13.049Z,55.31
2024-02-28T00:18:39.574Z,55.03
2024-02-28T00:21:06.070Z,55.68
2024-02-28T00:23:32.532Z,55.32
2024-02-28T00:25:58.965Z,54.87
2024-02-28T00:28:25.429Z,54.76
2024-02-28T00:30:51.913Z,54.69
2024-02-28T00:33:18.415Z,55.36
2024-02-28T00:35:44.885Z,54.92
2024-02-28T00:38:11.319Z,53.75
2024-02-28T00:40:37.767Z,54.76
2024-02-28T00:43:04.252Z,54.09
2024-02-28T00:45:30.841Z,54.13
2024-02-28T00:47:57.534Z,54.62
2024-02-28T00:50:24.119Z,54.77
2024-02-28T00:52:50.605Z,54.50
2024-02-28T00:55:17.117Z,54.27
2024-02-28T00:57:43.872Z,54.03
2024-02-28T01:00:10.468Z,54.80
2024-02-28T01:02:36.962Z,54.26
2024-02-28T01:05:03.509Z,54.78
2024-02-28T01:07:30.008Z,54.97
2024-02-28T01:09:56.519Z,55.52
2024-02-28T01:12:23.090Z,55.59
2024-02-28T01:14:49.710Z,54.71
2024-02-28T01:17:16.282Z,56.03
2024-02-28T01:19:42.798Z,56.92
2024-02-28T01:22:09.264Z,56.34
2024-02-28T01:24:35.943Z,56.87
2024-02-28T01:27:02.463Z,56.86
2024-02-28T01:29:28.898Z,56.70
2024-02-28T01:31:55.404Z,55.90
2024-02-28T01:34:21.885Z,56.66
2024-02-28T01:36:48.481Z,56.80
2024-02-28T01:39:14.982Z,56.95
2024-02-28T01:41:41.444Z,56.45
2024-02-28T01:44:07.904Z,56.17
2024-02-28T01:46:34.364Z,55.78
2024-02-28T01:49:00.880Z,56.56
2024-02-28T01:51:27.355Z,55.48
2024-02-28T01:53:53.945Z,56.13
2024-02-28T01:56:20.412Z,56.32
2024-02-28T01:58:46.947Z,55.85
2024-02-28T02:01:13.539Z,56.57
2024-02-28T02:03:40.123Z,56.00
2024-02-28T02:06:06.603Z,56.59
2024-02-28T02:08:33.287Z,56.33
2024-02-28T02:10:59.837Z,55.73
2024-02-28T02:13:26.295Z,56.19
2024-02-28T02:15:52.789Z,56.13
2024-02-28T02:18:19.373Z,57.42
2024-02-28T02:20:45.903Z,57.37
2024-02-28T02:23:12.383Z,57.17
2024-02-28T02:25:38.845Z,56.85
2024-02-28T02:28:05.313Z,56.76
2024-02-28T02:30:31.879Z,56.60
2024-02-28T02:32:58.447Z,57.26
2024-02-28T02:35:24.933Z,56.79
2024-02-28T02:37:51.589Z,57.04
2024-02-28T02:40:18.083Z,56.22
2024-02-28T02:42:44.799Z,56.66
2024-02-28T02:45:11.318Z,55.72
2024-02-28T02:47:38.013Z,56.43
2024-02-28T02:50:04.480Z,56.46
2024-02-28T02:52:30.925Z,56.49
2024-02-28T02:54:57.449Z,57.27
2024-02-28T02:57:23.958Z,56.57
2024-02-28T02:59:50.455Z,55.35
2024-02-28T03:02:16.926Z,55.76
2024-02-28T03:04:43.392Z,55.65
2024-02-28T03:07:09.984Z,55.20
2024-02-28T03:09:36.521Z,55.07
2024-02-28T03:12:03.036Z,55.07
2024-02-28T03:14:29.514Z,55.27
2024-02-28T03:16:56.016Z,54.41
2024-02-28T03:19:22.479Z,54.79
2024-02-28T03:21:49.084Z,53.83
2024-02-28T03:24:16.912Z,54.41
2024-02-28T03:26:43.415Z,54.04
2024-02-28T03:29:10.059Z,54.58
2024-02-28T03:31:36.515Z,54.41
2024-02-28T03:34:03.049Z,54.30
2024-02-28T03:36:29.624Z,53.82
2024-02-28T03:38:56.135Z,53.61
2024-02-28T03:41:22.651Z,53.61
2024-02-28T03:43:49.190Z,53.59
2024-02-28T03:46:15.704Z,53.58
2024-02-28T03:48:42.278Z,53.73
2024-02-28T03:51:08.766Z,54.09
2024-02-28T03:53:35.262Z,54.31
2024-02-28T03:56:01.767Z,53.21
2024-02-28T03:58:28.261Z,54.67
2024-02-28T04:00:54.781Z,53.17
2024-02-28T04:03:21.321Z,53.66
2024-02-28T04:05:47.772Z,53.49
2024-02-28T04:08:14.308Z,53.20
2024-02-28T04:10:40.895Z,52.60
2024-02-28T04:13:07.452Z,53.04
2024-02-28T04:15:34.067Z,52.99
2024-02-28T04:18:00.821Z,52.58
2024-02-28T04:20:27.282Z,53.04
2024-02-28T04:22:53.775Z,53.24
2024-02-28T04:25:20.234Z,52.78
2024-02-28T04:27:46.782Z,52.40
2024-02-28T04:30:13.360Z,52.30
2024-02-28T04:32:39.993Z,53.32
2024-02-28T04:35:06.487Z,53.54
2024-02-28T04:37:32.928Z,53.36
2024-02-28T04:39:59.416Z,53.08
2024-02-28T04:42:26.061Z,53.70
2024-02-28T04:44:52.568Z,53.46
2024-02-28T04:47:23.586Z,53.28
2024-02-28T04:49:53.693Z,53.52
2024-02-28T04:52:24.500Z,53.55
2024-02-28T04:54:51.244Z,53.28
2024-02-28T04:57:17.840Z,52.95
2024-02-28T04:59:44.326Z,54.20
2024-02-28T05:02:10.822Z,54.06
2024-02-28T05:04:37.285Z,54.76
2024-02-28T05:07:03.820Z,54.56
2024-02-28T05:09:30.410Z,54.73
2024-02-28T05:11:56.896Z,54.44
2024-02-28T05:14:23.340Z,54.45
2024-02-28T05:16:49.811Z,53.71
2024-02-28T05:19:16.266Z,53.84
2024-02-28T05:21:42.828Z,54.41
2024-02-28T05:24:09.332Z,53.90
2024-02-28T05:26:35.795Z,54.61
2024-02-28T05:29:02.266Z,53.54
2024-02-28T05:31:28.724Z,54.94
2024-02-28T05:33:55.308Z,54.35
2024-02-28T05:36:21.867Z,54.34
2024-02-28T05:38:48.389Z,53.93
2024-02-28T05:41:14.934Z,54.48
2024-02-28T05:43:41.391Z,53.94
2024-02-28T05:46:07.897Z,53.69
2024-02-28T05:48:34.521Z,53.91
2024-02-28T05:51:01.018Z,53.35
2024-02-28T05:53:27.512Z,52.42
2024-02-28T05:55:53.972Z,52.82
2024-02-28T05:58:20.453Z,53.09
2024-02-28T06:00:46.962Z,52.89
2024-02-28T06:03:13.446Z,53.04
2024-02-28T06:05:42.463Z,52.30
2024-02-28T06:08:10.113Z,52.58
2024-02-28T06:10:36.590Z,53.05
2024-02-28T06:13:03.095Z,52.98
2024-02-28T06:15:29.660Z,52.56
2024-02-28T06:17:56.158Z,52.12
2024-02-28T06:20:22.669Z,52.14
2024-02-28T06:22:49.180Z,52.56
2024-02-28T06:25:15.630Z,53.31
2024-02-28T06:27:42.129Z,52.51
2024-02-28T06:30:08.596Z,53.03
2024-02-28T06:32:35.067Z,54.10
2024-02-28T06:35:01.637Z,53.42
2024-02-28T06:37:28.110Z,53.29
2024-02-28T06:39:54.630Z,54.35
2024-02-28T06:42:21.211Z,55.54
2024-02-28T06:44:47.653Z,54.26
2024-02-28T06:47:14.109Z,54.80
2024-02-28T06:49:40.611Z,54.83
2024-02-28T06:52:07.153Z,54.78
2024-02-28T06:54:33.738Z,54.85
2024-02-28T06:57:00.281Z,56.15
2024-02-28T06:59:26.792Z,54.95
2024-02-28T07:01:53.299Z,55.76
2024-02-28T07:04:19.818Z,55.02
2024-02-28T07:06:46.340Z,55.31
2024-02-28T07:09:12.836Z,55.37
2024-02-28T07:11:39.281Z,54.51
2024-02-28T07:14:05.724Z,55.64
2024-02-28T07:16:32.185Z,55.90
2024-02-28T07:18:59.069Z,55.08
2024-02-28T07:21:25.564Z,55.28
2024-02-28T07:23:52.048Z,55.26
2024-02-28T07:26:26.486Z,54.33
2024-02-28T07:28:53.989Z,54.25
2024-02-28T07:31:20.560Z,54.42
2024-02-28T07:33:47.061Z,54.28
2024-02-28T07:36:13.541Z,53.96
2024-02-28T07:38:40.057Z,54.18
2024-02-28T07:41:06.550Z,53.15
2024-02-28T07:43:33.042Z,53.58
2024-02-28T07:45:59.501Z,53.91
2024-02-28T07:48:26.287Z,53.81
2024-02-28T07:50:52.857Z,53.19
2024-02-28T07:53:19.542Z,54.12
2024-02-28T07:55:46.222Z,53.93
2024-02-28T07:58:12.742Z,53.37
2024-02-28T08:00:39.423Z,54.73
2024-02-28T08:03:06.121Z,53.58
2024-02-28T08:05:32.744Z,53.59
2024-02-28T08:07:59.271Z,54.10
2024-02-28T08:10:25.772Z,54.82
2024-02-28T08:12:52.488Z,53.33
2024-02-28T08:15:19.166Z,54.19
2024-02-28T08:17:45.701Z,53.79
2024-02-28T08:20:12.317Z,54.36
2024-02-28T08:22:39.060Z,54.54
2024-02-28T08:25:05.551Z,54.00
2024-02-28T08:27:33.208Z,54.26
2024-02-28T08:29:59.880Z,54.47
2024-02-28T08:32:26.353Z,53.81
2024-02-28T08:34:52.841Z,53.76
2024-02-28T08:37:19.389Z,52.98
2024-02-28T08:39:45.907Z,53.05
2024-02-28T08:42:12.425Z,53.38
2024-02-28T08:44:38.906Z,53.49
2024-02-28T08:47:05.404Z,52.89
2024-02-28T08:49:31.945Z,52.66
2024-02-28T08:51:58.491Z,52.02
2024-02-28T08:54:25.119Z,52.67
2024-02-28T08:56:56.761Z,52.43
2024-02-28T08:59:26.921Z,52.39
2024-02-28T09:01:53.416Z,52.41
2024-02-28T09:04:19.909Z,52.23
2024-02-28T09:06:46.404Z,51.54
2024-02-28T09:09:13.000Z,51.74
2024-02-28T09:11:39.543Z,51.03
2024-02-28T09:14:05.987Z,52.36
2024-02-28T09:16:32.610Z,51.78
2024-02-28T09:18:59.156Z,51.51
2024-02-28T09:21:25.706Z,51.22
2024-02-28T09:23:52.186Z,51.67
2024-02-28T09:26:18.629Z,52.06
2024-02-28T09:28:45.092Z,51.34
2024-02-28T09:31:11.624Z,51.12
2024-02-28T09:33:38.250Z,51.77
2024-02-28T09:36:04.738Z,50.66
2024-02-28T09:38:31.236Z,50.22
2024-02-28T09:40:57.693Z,51.32
2024-02-28T09:43:24.273Z,50.90
2024-02-28T09:45:50.856Z,50.72
2024-02-28T09:48:17.827Z,50.78
2024-02-28T09:50:44.493Z,49.95
2024-02-28T09:53:11.491Z,49.60
2024-02-28T09:55:38.303Z,49.48
2024-02-28T09:58:05.071Z,49.32
2024-02-28T10:00:31.675Z,50.03
2024-02-28T10:02:58.128Z,49.69
2024-02-28T10:05:24.606Z,50.48
2024-02-28T10:07:51.090Z,49.69
2024-02-28T10:10:17.550Z,49.54
2024-02-28T10:12:44.087Z,50.52
2024-02-28T10:15:10.556Z,50.06
2024-02-28T10:17:37.038Z,49.50
2024-02-28T10:20:03.633Z,49.03
2024-02-28T10:22:30.115Z,48.28
2024-02-28T10:24:56.626Z,48.72
2024-02-28T10:27:23.154Z,49.31
2024-02-28T10:29:49.703Z,48.74
2024-02-28T10:32:16.136Z,49.39
2024-02-28T10:34:42.687Z,49.44
2024-02-28T10:37:09.152Z,49.50
2024-02-28T10:39:35.738Z,49.00
2024-02-28T10:42:02.382Z,49.48
2024-02-28T10:44:28.972Z,48.93
2024-02-28T10:46:55.471Z,48.19
2024-02-28T10:49:21.959Z,48.23
2024-02-28T10:51:48.499Z,48.56
2024-02-28T10:54:15.550Z,48.46
2024-02-28T10:56:42.697Z,48.32
2024-02-28T10:59:11.654Z,47.76
2024-02-28T11:01:38.777Z,48.05
2024-02-28T11:04:05.391Z,47.61
2024-02-28T11:06:32.018Z,49.09
2024-02-28T11:08:58.558Z,47.98
2024-02-28T11:11:25.175Z,48.56
2024-02-28T11:13:51.683Z,48.76
2024-02-28T11:16:18.174Z,48.95
2024-02-28T11:18:44.893Z,48.25
2024-02-28T11:21:12.693Z,48.04
2024-02-28T11:23:39.336Z,48.26
2024-02-28T11:26:05.917Z,47.33
2024-02-28T11:28:32.450Z,48.08
2024-02-28T11:30:58.977Z,46.99
2024-02-28T11:33:25.590Z,46.85
2024-02-28T11:35:52.158Z,47.67
2024-02-28T11:38:18.600Z,46.43
2024-02-28T11:40:45.226Z,46.84
2024-02-28T11:43:11.787Z,46.20
2024-02-28T11:45:38.315Z,45.26
2024-02-28T11:48:04.858Z,45.29
2024-02-28T11:50:31.413Z,45.21
2024-02-28T11:52:57.933Z,45.61
2024-02-28T11:55:24.378Z,44.34
2024-02-28T11:57:51.051Z,45.19
2024-02-28T12:00:17.543Z,45.22
2024-02-28T12:02:44.033Z,45.10
2024-02-28T12:05:10.625Z,44.99
2024-02-28T12:07:37.104Z,44.22
2024-02-28T12:10:03.687Z,43.82
2024-02-28T12:12:30.202Z,43.72
2024-02-28T12:14:56.709Z,44.06
2024-02-28T12:17:23.249Z,44.41
2024-02-28T12:19:51.908Z,43.96
2024-02-28T12:22:19.843Z,43.12
2024-02-28T12:24:46.409Z,42.88
2024-02-28T12:27:12.893Z,43.00
2024-02-28T12:29:39.366Z,43.11
2024-02-28T12:32:05.809Z,44.45
2024-02-28T12:34:32.466Z,43.71
2024-02-28T12:36:59.012Z,43.34
2024-02-28T12:39:25.484Z,43.53
2024-02-28T12:41:52.087Z,43.25
2024-02-28T12:44:18.644Z,43.67
2024-02-28T12:46:45.268Z,44.25
2024-02-28T12:49:11.830Z,43.92
2024-02-28T12:51:38.538Z,44.72
2024-02-28T12:54:05.061Z,43.99
2024-02-28T12:56:31.543Z,44.15
2024-02-28T12:58:58.027Z,44.68
2024-02-28T13:01:24.621Z,44.58
2024-02-28T13:03:51.124Z,43.65
2024-02-28T13:06:17.620Z,43.86
2024-02-28T13:08:44.090Z,44.05
2024-02-28T13:11:10.530Z,44.15
2024-02-28T13:13:37.015Z,43.69
2024-02-28T13:16:03.510Z,43.65
2024-02-28T13:18:30.158Z,43.52
2024-02-28T13:20:56.689Z,44.09
2024-02-28T13:23:23.179Z,43.50
2024-02-28T13:25:49.656Z,43.26
2024-02-28T13:28:16.114Z,42.85
2024-02-28T13:30:42.638Z,42.73
2024-02-28T13:33:09.200Z,42.59
2024-02-28T13:35:35.730Z,42.58
2024-02-28T13:38:02.180Z,42.76
2024-02-28T13:40:28.799Z,43.11
2024-02-28T13:42:55.350Z,42.95
2024-02-28T13:45:21.963Z,42.96
2024-02-28T13:47:48.455Z,43.58
2024-02-28T13:50:14.989Z,43.83
2024-02-28T13:52:41.491Z,43.45
2024-02-28T13:55:08.327Z,43.28
2024-02-28T13:57:34.894Z,43.54
2024-02-28T14:00:01.571Z,43.67
2024-02-28T14:02:28.332Z,43.91
2024-02-28T14:04:54.924Z,43.47
2024-02-28T14:07:21.373Z,43.27
2024-02-28T14:09:48.018Z,42.86
2024-02-28T14:12:14.525Z,43.25
2024-02-28T14:14:41.068Z,42.75
2024-02-28T14:17:07.578Z,42.49
2024-02-28T14:19:34.060Z,42.70
2024-02-28T14:22:00.588Z,42.55
2024-02-28T14:24:27.177Z,42.82
2024-02-28T14:26:53.696Z,43.13
2024-02-28T14:29:20.239Z,42.96
2024-02-28T14:31:46.669Z,42.79
2024-02-28T14:34:13.225Z,42.49
2024-02-28T14:36:39.699Z,42.19
2024-02-28T14:39:06.184Z,42.10
2024-02-28T14:41:32.610Z,41.94
2024-02-28T14:43:59.099Z,42.25
2024-02-28T14:46:25.548Z,42.22
2024-02-28T14:48:52.037Z,42.02
2024-02-28T14:51:18.508Z,42.49
2024-02-28T14:53:44.964Z,41.83
2024-02-28T14:56:11.486Z,41.23
2024-02-28T14:58:37.989Z,41.36
2024-02-28T15:01:04.547Z,41.57
2024-02-28T15:03:31.028Z,40.97
2024-02-28T15:05:57.480Z,41.16
2024-02-28T15:08:23.955Z,41.36
2024-02-28T15:10:50.442Z,40.81
2024-02-28T15:13:16.943Z,41.74
2024-02-28T15:15:43.690Z,42.24
2024-02-28T15:18:10.334Z,42.45
2024-02-28T15:20:36.793Z,43.04
2024-02-28T15:23:03.273Z,43.28
2024-02-28T15:25:29.711Z,43.15
2024-02-28T15:27:56.188Z,42.56
2024-02-28T15:30:22.631Z,43.50
2024-02-28T15:32:49.233Z,43.79
2024-02-28T15:35:15.891Z,44.00
2024-02-28T15:37:42.412Z,43.44
2024-02-28T15:40:08.909Z,44.55
2024-02-28T15:42:35.576Z,44.03
2024-02-28T15:45:02.112Z,43.57
2024-02-28T15:47:30.183Z,43.24
2024-02-28T15:49:58.077Z,44.36
2024-02-28T15:52:24.550Z,43.87
2024-02-28T15:54:51.022Z,43.68
2024-02-28T15:57:17.530Z,44.29
2024-02-28T15:59:43.967Z,43.78
2024-02-28T16:02:10.459Z,44.07
2024-02-28T16:04:36.888Z,44.36
2024-02-28T16:07:03.403Z,44.08
2024-02-28T16:09:29.904Z,44.44
2024-02-28T16:11:56.356Z,44.53
2024-02-28T16:14:22.849Z,45.18
2024-02-28T16:16:49.337Z,45.21
2024-02-28T16:19:22.549Z,44.79
2024-02-28T16:21:53.381Z,45.64
2024-02-28T16:24:19.944Z,45.85
2024-02-28T16:26:46.437Z,45.72
2024-02-28T16:29:13.014Z,46.73
2024-02-28T16:31:39.474Z,46.05
2024-02-28T16:34:06.050Z,46.64
2024-02-28T16:36:32.702Z,46.48
2024-02-28T16:38:59.378Z,46.40
2024-02-28T16:41:25.911Z,46.66
2024-02-28T16:43:52.411Z,46.69
2024-02-28T16:46:18.923Z,46.25
2024-02-28T16:48:45.505Z,46.67
2024-02-28T16:51:11.978Z,46.82
2024-02-28T16:53:38.427Z,46.54
2024-02-28T16:56:04.991Z,47.28
2024-02-28T16:58:31.513Z,47.21
2024-02-28T17:00:58.206Z,47.58
2024-02-28T17:03:24.813Z,48.03
2024-02-28T17:05:51.259Z,47.99
2024-02-28T17:08:17.800Z,47.85
2024-02-28T17:10:44.297Z,47.08
2024-02-28T17:13:13.887Z,47.88
2024-02-28T17:15:40.868Z,48.26
2024-02-28T17:18:07.439Z,47.87
2024-02-28T17:20:33.960Z,48.40
2024-02-28T17:23:00.424Z,47.69
2024-02-28T17:25:26.956Z,49.23
2024-02-28T17:27:53.530Z,49.48
2024-02-28T17:30:20.174Z,50.45
2024-02-28T17:32:46.670Z,49.80
2024-02-28T17:35:13.213Z,49.76
2024-02-28T17:37:39.652Z,50.34
2024-02-28T17:40:06.100Z,49.03
2024-02-28T17:42:32.658Z,48.87
2024-02-28T17:44:59.262Z,49.58
2024-02-28T17:47:25.721Z,49.11
2024-02-28T17:49:52.182Z,48.81
2024-02-28T17:52:18.792Z,49.38
2024-02-28T17:54:45.284Z,49.41
2024-02-28T17:57:11.798Z,50.09
2024-02-28T17:59:38.264Z,49.62
2024-02-28T18:02:04.708Z,49.45
2024-02-28T18:04:31.148Z,49.14
2024-02-28T18:06:57.750Z,48.60
2024-02-28T18:09:25.640Z,48.40
2024-02-28T18:11:53.369Z,48.74
2024-02-28T18:14:19.880Z,48.14
2024-02-28T18:16:46.380Z,48.15
2024-02-28T18:19:12.889Z,47.28
2024-02-28T18:21:39.407Z,47.80
2024-02-28T18:24:05.884Z,47.74
2024-02-28T18:26:32.324Z,47.20
2024-02-28T18:28:58.766Z,48.17
2024-02-28T18:31:25.246Z,47.67
2024-02-28T18:33:51.780Z,48.13
2024-02-28T18:36:18.262Z,47.79
2024-02-28T18:38:44.709Z,47.97
2024-02-28T18:41:11.160Z,48.70
2024-02-28T18:43:37.624Z,48.73
2024-02-28T18:46:04.200Z,47.77
2024-02-28T18:48:30.787Z,47.66
2024-02-28T18:50:57.375Z,47.60
2024-02-28T18:53:23.839Z,48.06
2024-02-28T18:55:50.345Z,48.09
2024-02-28T18:58:16.793Z,47.50
2024-02-28T19:00:43.368Z,47.66
2024-02-28T19:03:09.843Z,47.25
2024-02-28T19:05:36.401Z,46.94
2024-02-28T19:08:02.918Z,46.85
2024-02-28T19:10:29.387Z,47.21
2024-02-28T19:12:55.898Z,47.71
2024-02-28T19:15:22.495Z,47.72
2024-02-28T19:17:49.024Z,46.99
2024-02-28T19:20:15.603Z,48.24
2024-02-28T19:22:42.073Z,47.74
2024-02-28T19:25:08.724Z,48.44
2024-02-28T19:27:35.279Z,48.56
2024-02-28T19:30:01.844Z,48.30
2024-02-28T19:32:28.385Z,48.36
2024-02-28T19:34:54.898Z,47.88
2024-02-28T19:37:21.491Z,47.74
2024-02-28T19:39:48.066Z,48.91
2024-02-28T19:42:14.567Z,47.69
2024-02-28T19:44:41.076Z,47.88
2024-02-28T19:47:10.379Z,48.20
2024-02-28T19:49:36.848Z,49.41
2024-02-28T19:52:03.443Z,48.99
2024-02-28T19:54:29.954Z,49.83
2024-02-28T19:56:56.564Z,49.54
2024-02-28T19:59:23.097Z,49.22
2024-02-28T20:01:49.752Z,49.80
2024-02-28T20:04:16.398Z,49.39
2024-02-28T20:06:43.348Z,49.52
2024-02-28T20:09:09.983Z,49.69
2024-02-28T20:11:36.819Z,50.14
2024-02-28T20:14:03.333Z,49.73
2024-02-28T20:16:29.806Z,49.92
2024-02-28T20:18:56.324Z,49.82
2024-02-28T20:21:28.020Z,49.27
2024-02-28T20:23:57.520Z,50.04
2024-02-28T20:26:24.014Z,50.61
2024-02-28T20:28:50.477Z,50.41
2024-02-28T20:31:17.106Z,50.27
2024-02-28T20:33:43.569Z,49.71
2024-02-28T20:36:10.027Z,50.67
2024-02-28T20:38:36.606Z,51.00
2024-02-28T20:41:03.218Z,49.77
2024-02-28T20:43:29.659Z,50.53
2024-02-28T20:45:56.175Z,50.09
2024-02-28T20:48:22.758Z,51.03
2024-02-28T20:50:49.313Z,50.52
2024-02-28T20:53:15.941Z,51.69
2024-02-28T20:55:42.456Z,51.56
2024-02-28T20:58:08.987Z,51.47
2024-02-28T21:00:35.555Z,51.61
2024-02-28T21:03:02.064Z,52.81
2024-02-28T21:05:28.556Z,51.48
2024-02-28T21:07:55.201Z,51.63
2024-02-28T21:10:21.959Z,50.68
2024-02-28T21:12:48.475Z,51.60
2024-02-28T21:15:15.037Z,51.28
2024-02-28T21:17:41.529Z,51.67
2024-02-28T21:20:08.129Z,51.45
2024-02-28T21:22:34.751Z,51.01
2024-02-28T21:25:01.508Z,50.90
2024-02-28T21:27:28.167Z,50.95
2024-02-28T21:29:54.836Z,51.82
2024-02-28T21:32:21.331Z,51.70
2024-02-28T21:34:48.157Z,51.07
2024-02-28T21:37:14.778Z,51.56
2024-02-28T21:39:41.282Z,50.69
2024-02-28T21:42:07.750Z,51.17
2024-02-28T21:44:34.365Z,51.24
2024-02-28T21:47:00.887Z,50.48
2024-02-28T21:49:27.405Z,50.78
2024-02-28T21:51:54.012Z,51.40
2024-02-28T21:54:20.709Z,50.99
2024-02-28T21:56:47.161Z,50.77
2024-02-28T21:59:13.690Z,51.32
2024-02-28T22:01:40.231Z,50.82
2024-02-28T22:04:06.845Z,51.16
2024-02-28T22:06:33.501Z,50.51
2024-02-28T22:09:00.061Z,50.63
2024-02-28T22:11:26.678Z,50.64
2024-02-28T22:13:53.155Z,50.41
2024-02-28T22:16:19.634Z,50.80
2024-02-28T22:18:46.251Z,50.81
2024-02-28T22:21:12.859Z,50.87
2024-02-28T22:23:39.301Z,51.45
2024-02-28T22:26:05.770Z,51.67
2024-02-28T22:28:32.210Z,50.68
2024-02-28T22:30:58.762Z,50.94
2024-02-28T22:33:25.240Z,51.31
2024-02-28T22:35:51.695Z,51.35
2024-02-28T22:38:18.146Z,50.88
2024-02-28T22:40:44.611Z,51.07
2024-02-28T22:43:11.130Z,51.64
2024-02-28T22:45:37.706Z,51.85
2024-02-28T22:48:04.213Z,50.40
2024-02-28T22:50:30.729Z,50.87
2024-02-28T22:52:57.185Z,51.38
2024-02-28T22:55:23.806Z,51.36
2024-02-28T22:57:50.273Z,51.12
2024-02-28T23:00:16.806Z,50.88
2024-02-28T23:02:43.298Z,50.73
2024-02-28T23:05:09.746Z,50.56
2024-02-28T23:07:36.274Z,51.68
2024-02-28T23:10:02.806Z,50.94
2024-02-28T23:12:29.311Z,51.10
2024-02-28T23:14:55.883Z,50.89
2024-02-28T23:17:22.420Z,50.09
2024-02-28T23:19:50.327Z,51.47
2024-02-28T23:22:16.981Z,51.43
2024-02-28T23:24:43.517Z,51.54
2024-02-28T23:27:10.075Z,52.37
2024-02-28T23:29:36.568Z,51.86
2024-02-28T23:32:03.019Z,51.49
2024-02-28T23:34:29.533Z,52.14
2024-02-28T23:36:56.006Z,51.62
2024-02-28T23:39:22.486Z,51.93
2024-02-28T23:41:48.936Z,52.07
2024-02-28T23:44:15.413Z,51.21
2024-02-28T23:46:41.860Z,51.64
2024-02-28T23:49:08.373Z,51.66
2024-02-28T23:51:34.979Z,52.02
2024-02-28T23:54:01.470Z,51.49
2024-02-28T23:56:27.920Z,51.49
2024-02-28T23:58:54.366Z,51.63
